Dinghai, China
Current Conditions -  °F | °C
As of 11:00 AM on Saturday 22 Nov 2014 (Local Time) from ZSNB Reporting Station
Haze Haze  
Wind Chill: 68°   Ceiling: Unl
Heat Index: 68°   Visibility: 3mi
Dew Point: 61°   Wind: 2mph
Humidity: 78%   Direction: NA
Pressure: 30.15"   Gusts: NA
Location:  30.02°N, 122.1°E
Report Text: ZSNB 220300Z VRB01MPS 5000 HZ NSC 20/16 Q1021 NOSIG
Loading
Personal Weather Stations






























Interactive Weather Map New forecast layout! Learn more

10-Day Weather Forecast

Advertisements
Track Severe Weather on mobile